< < Back
Terminal Aerodrome Forecast


Current Version              Previous Versions:   1  2  3  4  5  6  7  8  9  

Terminal Aerodrome Forecast

155
FTUS42 KCHS 300248 AAA
TAFCHS
TAF AMD
KCHS 300248Z 3003/3024 04006KT P6SM VCSH SCT010 OVC020
     FM300600 36006KT P6SM VCSH SCT006 BKN010
     FM300800 31010KT P6SM VCSH SCT006 BKN010
     FM301700 29009KT P6SM VCSH SCT010 BKN025=

Latest METAR

351
SAUS80 KWBC 300300 RRA
MTRCHS
METAR KCHS 300256Z 04005KT 10SM OVC021 22/19 A2993 RMK AO2 SLP134
T02220194 53010


USA.gov is the U.S. government's official web portal to all federal, state and local government web resources and services.